sensor_id;sensor_type;location;lat;lon;timestamp;noise_LAeq;noise_LA_min;noise_LA_max;noise_LA01;noise_LA95
69619;Laerm;57653;51.434;5.984;2023-11-21T00:00:01;32.79;31.78;33.64;;
69619;Laerm;57653;51.434;5.984;2023-11-21T00:00:12;36.03;32.12;49.06;;
69619;Laerm;57653;51.434;5.984;2023-11-21T00:00:23;32.82;31.96;34.24;;
69619;Laerm;57653;51.434;5.984;2023-11-21T00:00:33;32.81;31.83;33.56;;
69619;Laerm;57653;51.434;5.984;2023-11-21T00:00:43;32.79;32.08;33.95;;
69619;Laerm;57653;51.434;5.984;2023-11-21T00:00:54;32.80;31.88;33.75;;
69619;Laerm;57653;51.434;5.984;2023-11-21T00:01:04;32.87;31.80;33.95;;
69619;Laerm;57653;51.434;5.984;2023-11-21T00:01:14;33.18;31.81;47.61;;
69619;Laerm;57653;51.434;5.984;2023-11-21T00:01:25;32.76;31.79;35.10;;
69619;Laerm;57653;51.434;5.984;2023-11-21T00:01:35;32.77;31.88;33.72;;
69619;Laerm;57653;51.434;5.984;2023-11-21T00:01:46;32.71;31.93;33.69;;
69619;Laerm;57653;51.434;5.984;2023-11-21T00:01:57;32.78;31.48;33.62;;
69619;Laerm;57653;51.434;5.984;2023-11-21T00:02:07;32.77;31.72;33.63;;
69619;Laerm;57653;51.434;5.984;2023-11-21T00:02:17;32.76;31.81;33.59;;
69619;Laerm;57653;51.434;5.984;2023-11-21T00:02:27;32.75;31.80;33.80;;
69619;Laerm;57653;51.434;5.984;2023-11-21T00:02:38;32.69;31.68;35.10;;
69619;Laerm;57653;51.434;5.984;2023-11-21T00:02:50;32.72;31.88;33.71;;
69619;Laerm;57653;51.434;5.984;2023-11-21T00:03:00;32.73;31.37;34.07;;
69619;Laerm;57653;51.434;5.984;2023-11-21T00:03:10;32.78;31.88;33.57;;
69619;Laerm;57653;51.434;5.984;2023-11-21T00:03:21;33.06;32.16;35.39;;
69619;Laerm;57653;51.434;5.984;2023-11-21T00:03:33;33.17;32.01;34.48;;
69619;Laerm;57653;51.434;5.984;2023-11-21T00:03:44;32.74;31.66;33.53;;
69619;Laerm;57653;51.434;5.984;2023-11-21T00:03:54;32.76;31.94;33.85;;
69619;Laerm;57653;51.434;5.984;2023-11-21T00:04:05;32.82;31.94;33.75;;
69619;Laerm;57653;51.434;5.984;2023-11-21T00:04:17;32.73;31.88;33.66;;
69619;Laerm;57653;51.434;5.984;2023-11-21T00:04:27;32.76;31.77;33.85;;
69619;Laerm;57653;51.434;5.984;2023-11-21T00:04:37;32.82;31.93;34.06;;
69619;Laerm;57653;51.434;5.984;2023-11-21T00:04:48;32.82;31.85;33.65;;
69619;Laerm;57653;51.434;5.984;2023-11-21T00:04:58;32.77;31.41;33.97;;
69619;Laerm;57653;51.434;5.984;2023-11-21T00:05:09;32.75;31.68;34.94;;
69619;Laerm;57653;51.434;5.984;2023-11-21T00:05:19;32.78;31.93;33.75;;
69619;Laerm;57653;51.434;5.984;2023-11-21T00:05:33;32.76;31.80;33.81;;
69619;Laerm;57653;51.434;5.984;2023-11-21T00:05:43;32.73;31.85;33.77;;
69619;Laerm;57653;51.434;5.984;2023-11-21T00:05:53;32.82;31.78;33.77;;
69619;Laerm;57653;51.434;5.984;2023-11-21T00:06:04;32.94;32.02;34.20;;
69619;Laerm;57653;51.434;5.984;2023-11-21T00:06:14;33.20;32.16;34.26;;
69619;Laerm;57653;51.434;5.984;2023-11-21T00:06:25;32.81;31.87;33.63;;
69619;Laerm;57653;51.434;5.984;2023-11-21T00:06:35;32.81;31.87;33.81;;
69619;Laerm;57653;51.434;5.984;2023-11-21T00:06:45;32.80;31.40;33.64;;
69619;Laerm;57653;51.434;5.984;2023-11-21T00:06:57;32.83;31.81;34.39;;
69619;Laerm;57653;51.434;5.984;2023-11-21T00:07:07;32.77;31.59;33.73;;
69619;Laerm;57653;51.434;5.984;2023-11-21T00:07:17;32.75;31.84;33.70;;
69619;Laerm;57653;51.434;5.984;2023-11-21T00:07:27;32.71;31.80;33.71;;
69619;Laerm;57653;51.434;5.984;2023-11-21T00:07:38;32.75;31.77;33.60;;
69619;Laerm;57653;51.434;5.984;2023-11-21T00:07:48;32.74;31.95;35.51;;
69619;Laerm;57653;51.434;5.984;2023-11-21T00:07:58;32.65;31.70;33.74;;
69619;Laerm;57653;51.434;5.984;2023-11-21T00:08:09;32.62;31.71;33.83;;
69619;Laerm;57653;51.434;5.984;2023-11-21T00:08:20;32.65;31.68;33.55;;
69619;Laerm;57653;51.434;5.984;2023-11-21T00:08:30;32.71;31.89;35.24;;
69619;Laerm;57653;51.434;5.984;2023-11-21T00:08:41;32.60;31.72;33.52;;
69619;Laerm;57653;51.434;5.984;2023-11-21T00:08:51;32.61;31.79;35.25;;
69619;Laerm;57653;51.434;5.984;2023-11-21T00:09:01;32.58;31.71;33.89;;
69619;Laerm;57653;51.434;5.984;2023-11-21T00:09:13;32.58;31.53;33.88;;
69619;Laerm;57653;51.434;5.984;2023-11-21T00:09:25;32.53;31.63;33.53;;
69619;Laerm;57653;51.434;5.984;2023-11-21T00:09:35;32.54;31.54;33.37;;
69619;Laerm;57653;51.434;5.984;2023-11-21T00:09:46;32.58;31.49;33.41;;
69619;Laerm;57653;51.434;5.984;2023-11-21T00:09:56;32.59;31.78;33.52;;
69619;Laerm;57653;51.434;5.984;2023-11-21T00:10:07;32.61;31.69;34.39;;
69619;Laerm;57653;51.434;5.984;2023-11-21T00:10:18;32.61;31.70;33.70;;
69619;Laerm;57653;51.434;5.984;2023-11-21T00:10:28;32.58;31.47;33.45;;
69619;Laerm;57653;51.434;5.984;2023-11-21T00:10:38;32.53;31.29;33.34;;
69619;Laerm;57653;51.434;5.984;2023-11-21T00:10:49;32.56;31.55;33.45;;
69619;Laerm;57653;51.434;5.984;2023-11-21T00:10:59;32.60;31.49;34.41;;
69619;Laerm;57653;51.434;5.984;2023-11-21T00:11:10;32.62;31.68;33.54;;
69619;Laerm;57653;51.434;5.984;2023-11-21T00:11:20;32.74;31.65;34.59;;
69619;Laerm;57653;51.434;5.984;2023-11-21T00:11:31;32.77;31.85;35.18;;
69619;Laerm;57653;51.434;5.984;2023-11-21T00:11:41;32.75;31.83;36.47;;
69619;Laerm;57653;51.434;5.984;2023-11-21T00:11:51;32.72;31.87;34.51;;
69619;Laerm;57653;51.434;5.984;2023-11-21T00:12:02;32.72;31.76;33.67;;
69619;Laerm;57653;51.434;5.984;2023-11-21T00:12:12;32.70;31.78;33.58;;
69619;Laerm;57653;51.434;5.984;2023-11-21T00:12:23;32.71;31.83;33.58;;
69619;Laerm;57653;51.434;5.984;2023-11-21T00:12:34;32.83;31.52;35.24;;
69619;Laerm;57653;51.434;5.984;2023-11-21T00:12:45;32.70;31.89;33.54;;
69619;Laerm;57653;51.434;5.984;2023-11-21T00:12:58;32.76;31.90;33.99;;
69619;Laerm;57653;51.434;5.984;2023-11-21T00:13:08;32.72;31.95;33.77;;
69619;Laerm;57653;51.434;5.984;2023-11-21T00:13:18;32.72;31.56;33.74;;
69619;Laerm;57653;51.434;5.984;2023-11-21T00:13:29;32.71;31.80;33.62;;
69619;Laerm;57653;51.434;5.984;2023-11-21T00:13:39;32.72;31.79;33.47;;
69619;Laerm;57653;51.434;5.984;2023-11-21T00:13:49;32.72;31.74;33.52;;
69619;Laerm;57653;51.434;5.984;2023-11-21T00:14:00;32.72;31.79;33.65;;
69619;Laerm;57653;51.434;5.984;2023-11-21T00:14:13;32.73;31.67;33.72;;
69619;Laerm;57653;51.434;5.984;2023-11-21T00:14:25;32.71;31.67;34.33;;
69619;Laerm;57653;51.434;5.984;2023-11-21T00:14:36;32.76;31.83;33.76;;
69619;Laerm;57653;51.434;5.984;2023-11-21T00:14:46;32.79;31.81;33.77;;
69619;Laerm;57653;51.434;5.984;2023-11-21T00:14:57;32.78;31.86;33.58;;
69619;Laerm;57653;51.434;5.984;2023-11-21T00:15:08;32.78;31.84;33.80;;
69619;Laerm;57653;51.434;5.984;2023-11-21T00:15:21;32.77;31.58;33.73;;
69619;Laerm;57653;51.434;5.984;2023-11-21T00:15:31;32.87;31.89;33.81;;
69619;Laerm;57653;51.434;5.984;2023-11-21T00:15:42;32.85;31.93;33.97;;
69619;Laerm;57653;51.434;5.984;2023-11-21T00:15:52;32.75;31.85;33.97;;
69619;Laerm;57653;51.434;5.984;2023-11-21T00:16:02;32.75;31.55;33.92;;
69619;Laerm;57653;51.434;5.984;2023-11-21T00:16:14;32.72;31.84;33.99;;
69619;Laerm;57653;51.434;5.984;2023-11-21T00:16:24;32.72;31.83;34.05;;
69619;Laerm;57653;51.434;5.984;2023-11-21T00:16:35;32.87;31.84;35.28;;
69619;Laerm;57653;51.434;5.984;2023-11-21T00:16:45;33.28;32.20;35.04;;
69619;Laerm;57653;51.434;5.984;2023-11-21T00:16:55;32.75;31.50;33.59;;
69619;Laerm;57653;51.434;5.984;2023-11-21T00:17:06;33.00;31.99;34.44;;
69619;Laerm;57653;51.434;5.984;2023-11-21T00:17:16;33.30;32.13;34.39;;
69619;Laerm;57653;51.434;5.984;2023-11-21T00:17:26;32.81;31.55;33.81;;
69619;Laerm;57653;51.434;5.984;2023-11-21T00:17:40;33.08;31.91;34.17;;
69619;Laerm;57653;51.434;5.984;2023-11-21T00:17:50;33.22;31.94;35.22;;
69619;Laerm;57653;51.434;5.984;2023-11-21T00:18:00;33.68;32.00;37.20;;
69619;Laerm;57653;51.434;5.984;2023-11-21T00:18:10;34.39;32.41;37.59;;
69619;Laerm;57653;51.434;5.984;2023-11-21T00:18:21;36.80;32.61;45.27;;
69619;Laerm;57653;51.434;5.984;2023-11-21T00:18:31;36.95;33.34;43.68;;
69619;Laerm;57653;51.434;5.984;2023-11-21T00:18:41;35.92;33.27;40.40;;
69619;Laerm;57653;51.434;5.984;2023-11-21T00:18:52;35.04;32.42;40.12;;
69619;Laerm;57653;51.434;5.984;2023-11-21T00:19:03;34.19;31.97;40.03;;
69619;Laerm;57653;51.434;5.984;2023-11-21T00:19:13;32.96;31.87;34.50;;
69619;Laerm;57653;51.434;5.984;2023-11-21T00:19:23;32.96;31.55;34.95;;
69619;Laerm;57653;51.434;5.984;2023-11-21T00:19:33;32.85;31.73;34.10;;
69619;Laerm;57653;51.434;5.984;2023-11-21T00:19:44;32.76;31.87;33.84;;
69619;Laerm;57653;51.434;5.984;2023-11-21T00:19:55;32.72;31.82;33.56;;
69619;Laerm;57653;51.434;5.984;2023-11-21T00:20:05;32.67;31.83;35.36;;
69619;Laerm;57653;51.434;5.984;2023-11-21T00:20:17;32.70;31.66;34.29;;
69619;Laerm;57653;51.434;5.984;2023-11-21T00:20:27;32.82;31.81;35.06;;
69619;Laerm;57653;51.434;5.984;2023-11-21T00:20:37;32.73;31.73;33.87;;
69619;Laerm;57653;51.434;5.984;2023-11-21T00:20:47;32.73;31.51;33.63;;
69619;Laerm;57653;51.434;5.984;2023-11-21T00:20:58;32.71;31.79;34.25;;
69619;Laerm;57653;51.434;5.984;2023-11-21T00:21:09;32.83;31.82;33.73;;
69619;Laerm;57653;51.434;5.984;2023-11-21T00:21:22;32.87;31.96;34.76;;
69619;Laerm;57653;51.434;5.984;2023-11-21T00:21:35;32.99;31.84;33.89;;
69619;Laerm;57653;51.434;5.984;2023-11-21T00:21:46;32.89;31.80;33.84;;
69619;Laerm;57653;51.434;5.984;2023-11-21T00:21:56;33.08;32.00;34.07;;
69619;Laerm;57653;51.434;5.984;2023-11-21T00:22:08;32.89;32.04;34.12;;
69619;Laerm;57653;51.434;5.984;2023-11-21T00:22:19;32.76;31.57;35.56;;
69619;Laerm;57653;51.434;5.984;2023-11-21T00:22:29;32.68;31.55;33.83;;
69619;Laerm;57653;51.434;5.984;2023-11-21T00:22:40;32.95;31.90;34.32;;
69619;Laerm;57653;51.434;5.984;2023-11-21T00:22:50;32.93;31.72;34.43;;
69619;Laerm;57653;51.434;5.984;2023-11-21T00:23:00;32.85;31.81;38.85;;
69619;Laerm;57653;51.434;5.984;2023-11-21T00:23:12;33.11;31.78;36.68;;
69619;Laerm;57653;51.434;5.984;2023-11-21T00:23:22;32.77;31.66;33.78;;
69619;Laerm;57653;51.434;5.984;2023-11-21T00:23:32;32.80;31.95;33.80;;
69619;Laerm;57653;51.434;5.984;2023-11-21T00:23:43;32.77;31.81;33.78;;
69619;Laerm;57653;51.434;5.984;2023-11-21T00:23:53;32.66;31.59;33.73;;
69619;Laerm;57653;51.434;5.984;2023-11-21T00:24:03;32.62;31.67;33.70;;
69619;Laerm;57653;51.434;5.984;2023-11-21T00:24:13;32.70;31.44;40.30;;
69619;Laerm;57653;51.434;5.984;2023-11-21T00:24:24;32.62;31.75;35.53;;
69619;Laerm;57653;51.434;5.984;2023-11-21T00:24:34;32.61;31.85;33.38;;
69619;Laerm;57653;51.434;5.984;2023-11-21T00:24:45;32.61;31.52;33.49;;
69619;Laerm;57653;51.434;5.984;2023-11-21T00:24:55;32.69;31.64;40.11;;
69619;Laerm;57653;51.434;5.984;2023-11-21T00:25:06;32.57;31.46;33.52;;
69619;Laerm;57653;51.434;5.984;2023-11-21T00:25:16;32.61;31.59;33.48;;
69619;Laerm;57653;51.434;5.984;2023-11-21T00:25:27;32.55;31.43;33.50;;
69619;Laerm;57653;51.434;5.984;2023-11-21T00:25:38;32.64;31.69;38.68;;
69619;Laerm;57653;51.434;5.984;2023-11-21T00:25:48;32.58;31.63;33.47;;
69619;Laerm;57653;51.434;5.984;2023-11-21T00:25:58;32.61;31.68;33.56;;
69619;Laerm;57653;51.434;5.984;2023-11-21T00:26:08;32.67;31.83;35.25;;
69619;Laerm;57653;51.434;5.984;2023-11-21T00:26:19;32.62;31.64;34.72;;
69619;Laerm;57653;51.434;5.984;2023-11-21T00:26:29;32.67;31.71;33.61;;
69619;Laerm;57653;51.434;5.984;2023-11-21T00:26:42;32.65;31.66;33.62;;
69619;Laerm;57653;51.434;5.984;2023-11-21T00:26:52;32.63;31.71;33.48;;
69619;Laerm;57653;51.434;5.984;2023-11-21T00:27:03;32.64;31.61;35.41;;
69619;Laerm;57653;51.434;5.984;2023-11-21T00:27:13;32.66;31.75;34.78;;
69619;Laerm;57653;51.434;5.984;2023-11-21T00:27:24;32.60;31.82;33.77;;
69619;Laerm;57653;51.434;5.984;2023-11-21T00:27:37;32.63;31.18;33.38;;
69619;Laerm;57653;51.434;5.984;2023-11-21T00:27:48;32.64;31.78;37.74;;
69619;Laerm;57653;51.434;5.984;2023-11-21T00:27:58;32.58;31.63;33.48;;
69619;Laerm;57653;51.434;5.984;2023-11-21T00:28:08;32.64;31.61;33.81;;
69619;Laerm;57653;51.434;5.984;2023-11-21T00:28:18;32.63;31.82;34.39;;
69619;Laerm;57653;51.434;5.984;2023-11-21T00:28:29;32.62;31.47;33.53;;
69619;Laerm;57653;51.434;5.984;2023-11-21T00:28:40;32.61;31.59;33.53;;
69619;Laerm;57653;51.434;5.984;2023-11-21T00:28:50;32.64;31.65;34.55;;
69619;Laerm;57653;51.434;5.984;2023-11-21T00:29:00;32.70;31.67;36.21;;
69619;Laerm;57653;51.434;5.984;2023-11-21T00:29:11;32.61;31.76;35.59;;
69619;Laerm;57653;51.434;5.984;2023-11-21T00:29:21;32.62;31.59;34.19;;
69619;Laerm;57653;51.434;5.984;2023-11-21T00:29:31;32.57;31.75;33.69;;
69619;Laerm;57653;51.434;5.984;2023-11-21T00:29:41;32.63;31.81;35.47;;
69619;Laerm;57653;51.434;5.984;2023-11-21T00:29:52;32.58;31.57;33.53;;
69619;Laerm;57653;51.434;5.984;2023-11-21T00:30:02;32.61;31.75;33.37;;
69619;Laerm;57653;51.434;5.984;2023-11-21T00:30:14;32.71;31.84;36.37;;
69619;Laerm;57653;51.434;5.984;2023-11-21T00:30:25;32.66;31.50;33.42;;
69619;Laerm;57653;51.434;5.984;2023-11-21T00:30:35;32.65;31.46;36.41;;
69619;Laerm;57653;51.434;5.984;2023-11-21T00:30:45;32.60;31.61;33.73;;
69619;Laerm;57653;51.434;5.984;2023-11-21T00:30:55;32.59;31.53;34.25;;
69619;Laerm;57653;51.434;5.984;2023-11-21T00:31:06;36.36;31.75;51.61;;
69619;Laerm;57653;51.434;5.984;2023-11-21T00:31:16;33.10;31.47;40.28;;
69619;Laerm;57653;51.434;5.984;2023-11-21T00:31:26;32.59;31.39;33.45;;
69619;Laerm;57653;51.434;5.984;2023-11-21T00:31:36;32.60;31.57;33.47;;
69619;Laerm;57653;51.434;5.984;2023-11-21T00:31:47;32.62;31.64;34.36;;
69619;Laerm;57653;51.434;5.984;2023-11-21T00:31:57;32.57;31.72;33.37;;
69619;Laerm;57653;51.434;5.984;2023-11-21T00:32:08;32.63;31.72;33.45;;
69619;Laerm;57653;51.434;5.984;2023-11-21T00:32:19;32.60;31.57;33.58;;
69619;Laerm;57653;51.434;5.984;2023-11-21T00:32:29;32.61;31.84;33.45;;
69619;Laerm;57653;51.434;5.984;2023-11-21T00:32:39;32.59;31.63;33.49;;
69619;Laerm;57653;51.434;5.984;2023-11-21T00:32:50;32.57;31.47;33.62;;
69619;Laerm;57653;51.434;5.984;2023-11-21T00:33:00;32.58;31.81;33.67;;
69619;Laerm;57653;51.434;5.984;2023-11-21T00:33:10;32.63;31.67;34.58;;
69619;Laerm;57653;51.434;5.984;2023-11-21T00:33:20;32.64;31.53;33.84;;
69619;Laerm;57653;51.434;5.984;2023-11-21T00:33:31;32.63;31.59;34.88;;
69619;Laerm;57653;51.434;5.984;2023-11-21T00:33:41;32.62;31.79;33.40;;
69619;Laerm;57653;51.434;5.984;2023-11-21T00:33:52;32.58;31.64;33.59;;
69619;Laerm;57653;51.434;5.984;2023-11-21T00:34:02;32.60;31.83;33.90;;
69619;Laerm;57653;51.434;5.984;2023-11-21T00:34:15;32.59;31.53;33.48;;
69619;Laerm;57653;51.434;5.984;2023-11-21T00:34:25;32.70;31.76;38.89;;
69619;Laerm;57653;51.434;5.984;2023-11-21T00:34:35;32.63;31.71;33.51;;
69619;Laerm;57653;51.434;5.984;2023-11-21T00:34:45;32.65;31.72;33.75;;
69619;Laerm;57653;51.434;5.984;2023-11-21T00:34:56;32.71;31.46;34.74;;
69619;Laerm;57653;51.434;5.984;2023-11-21T00:35:06;32.89;31.80;35.67;;
69619;Laerm;57653;51.434;5.984;2023-11-21T00:35:16;34.19;32.33;37.91;;
69619;Laerm;57653;51.434;5.984;2023-11-21T00:35:26;37.04;33.15;45.03;;
69619;Laerm;57653;51.434;5.984;2023-11-21T00:35:37;37.65;32.68;45.07;;
69619;Laerm;57653;51.434;5.984;2023-11-21T00:35:47;35.22;32.14;40.81;;
69619;Laerm;57653;51.434;5.984;2023-11-21T00:35:57;34.18;32.28;37.68;;
69619;Laerm;57653;51.434;5.984;2023-11-21T00:36:07;33.84;31.99;37.24;;
69619;Laerm;57653;51.434;5.984;2023-11-21T00:36:19;33.60;32.10;37.55;;
69619;Laerm;57653;51.434;5.984;2023-11-21T00:36:29;33.24;31.98;35.99;;
69619;Laerm;57653;51.434;5.984;2023-11-21T00:36:40;33.70;31.54;38.24;;
69619;Laerm;57653;51.434;5.984;2023-11-21T00:36:50;33.46;31.92;36.74;;
69619;Laerm;57653;51.434;5.984;2023-11-21T00:37:00;32.76;31.94;34.00;;
69619;Laerm;57653;51.434;5.984;2023-11-21T00:37:11;32.68;31.77;33.70;;
69619;Laerm;57653;51.434;5.984;2023-11-21T00:37:21;32.81;31.84;33.70;;
69619;Laerm;57653;51.434;5.984;2023-11-21T00:37:32;32.66;31.72;33.59;;
69619;Laerm;57653;51.434;5.984;2023-11-21T00:37:42;32.77;31.72;33.51;;
69619;Laerm;57653;51.434;5.984;2023-11-21T00:37:52;32.69;31.94;33.80;;
69619;Laerm;57653;51.434;5.984;2023-11-21T00:38:02;32.63;31.68;33.64;;
69619;Laerm;57653;51.434;5.984;2023-11-21T00:38:13;32.67;31.44;34.41;;
69619;Laerm;57653;51.434;5.984;2023-11-21T00:38:23;32.67;31.60;34.41;;
69619;Laerm;57653;51.434;5.984;2023-11-21T00:38:34;32.69;31.49;34.85;;
69619;Laerm;57653;51.434;5.984;2023-11-21T00:38:44;32.69;31.90;34.10;;
69619;Laerm;57653;51.434;5.984;2023-11-21T00:38:54;32.69;31.83;33.68;;
69619;Laerm;57653;51.434;5.984;2023-11-21T00:39:05;32.65;31.74;33.58;;
69619;Laerm;57653;51.434;5.984;2023-11-21T00:39:16;32.64;31.53;34.56;;
69619;Laerm;57653;51.434;5.984;2023-11-21T00:39:26;32.63;31.40;33.50;;
69619;Laerm;57653;51.434;5.984;2023-11-21T00:39:36;32.66;31.60;33.58;;
69619;Laerm;57653;51.434;5.984;2023-11-21T00:39:46;32.72;31.70;36.57;;
69619;Laerm;57653;51.434;5.984;2023-11-21T00:39:56;32.62;31.64;33.45;;
69619;Laerm;57653;51.434;5.984;2023-11-21T00:40:07;32.65;31.71;33.67;;
69619;Laerm;57653;51.434;5.984;2023-11-21T00:40:17;32.64;31.59;33.52;;
69619;Laerm;57653;51.434;5.984;2023-11-21T00:40:31;32.90;31.97;38.18;;
69619;Laerm;57653;51.434;5.984;2023-11-21T00:40:41;32.84;31.90;33.93;;
69619;Laerm;57653;51.434;5.984;2023-11-21T00:40:52;32.65;31.73;35.64;;
69619;Laerm;57653;51.434;5.984;2023-11-21T00:41:03;32.63;31.60;33.50;;
69619;Laerm;57653;51.434;5.984;2023-11-21T00:41:13;32.56;31.39;33.55;;
69619;Laerm;57653;51.434;5.984;2023-11-21T00:41:23;32.73;31.83;33.76;;
69619;Laerm;57653;51.434;5.984;2023-11-21T00:41:34;32.61;31.65;33.76;;
69619;Laerm;57653;51.434;5.984;2023-11-21T00:41:44;32.55;31.44;33.85;;
69619;Laerm;57653;51.434;5.984;2023-11-21T00:41:58;32.66;31.70;34.78;;
69619;Laerm;57653;51.434;5.984;2023-11-21T00:42:08;32.46;31.32;33.42;;
69619;Laerm;57653;51.434;5.984;2023-11-21T00:42:18;32.45;31.36;33.90;;
69619;Laerm;57653;51.434;5.984;2023-11-21T00:42:29;32.50;31.32;33.37;;
69619;Laerm;57653;51.434;5.984;2023-11-21T00:42:39;32.57;31.72;33.52;;
69619;Laerm;57653;51.434;5.984;2023-11-21T00:42:49;32.81;31.83;34.15;;
69619;Laerm;57653;51.434;5.984;2023-11-21T00:42:59;32.53;31.53;33.37;;
69619;Laerm;57653;51.434;5.984;2023-11-21T00:43:10;32.48;31.32;37.34;;
69619;Laerm;57653;51.434;5.984;2023-11-21T00:43:20;32.45;31.55;33.31;;
69619;Laerm;57653;51.434;5.984;2023-11-21T00:43:30;32.48;31.61;33.38;;
69619;Laerm;57653;51.434;5.984;2023-11-21T00:43:40;32.48;31.45;33.59;;
69619;Laerm;57653;51.434;5.984;2023-11-21T00:43:50;32.46;31.55;33.41;;
69619;Laerm;57653;51.434;5.984;2023-11-21T00:44:01;32.49;31.59;33.53;;
69619;Laerm;57653;51.434;5.984;2023-11-21T00:44:12;32.49;31.25;33.41;;
69619;Laerm;57653;51.434;5.984;2023-11-21T00:44:22;32.46;31.44;34.81;;
69619;Laerm;57653;51.434;5.984;2023-11-21T00:44:32;32.46;31.46;33.52;;
69619;Laerm;57653;51.434;5.984;2023-11-21T00:44:44;32.55;31.60;33.42;;
69619;Laerm;57653;51.434;5.984;2023-11-21T00:44:54;32.82;32.00;36.58;;
69619;Laerm;57653;51.434;5.984;2023-11-21T00:45:05;32.60;31.73;34.83;;
69619;Laerm;57653;51.434;5.984;2023-11-21T00:45:16;32.52;31.48;33.41;;
69619;Laerm;57653;51.434;5.984;2023-11-21T00:45:26;32.53;31.27;33.47;;
69619;Laerm;57653;51.434;5.984;2023-11-21T00:45:36;32.54;31.52;33.37;;
69619;Laerm;57653;51.434;5.984;2023-11-21T00:45:47;32.68;31.51;33.49;;
69619;Laerm;57653;51.434;5.984;2023-11-21T00:45:59;32.57;31.58;34.51;;
69619;Laerm;57653;51.434;5.984;2023-11-21T00:46:09;32.56;31.54;33.73;;
69619;Laerm;57653;51.434;5.984;2023-11-21T00:46:19;32.52;31.60;33.58;;
69619;Laerm;57653;51.434;5.984;2023-11-21T00:46:29;32.54;31.36;33.50;;
69619;Laerm;57653;51.434;5.984;2023-11-21T00:46:40;32.56;31.45;33.79;;
69619;Laerm;57653;51.434;5.984;2023-11-21T00:46:50;32.55;31.57;33.48;;
69619;Laerm;57653;51.434;5.984;2023-11-21T00:47:00;32.63;31.72;33.46;;
69619;Laerm;57653;51.434;5.984;2023-11-21T00:47:11;32.58;31.36;34.02;;
69619;Laerm;57653;51.434;5.984;2023-11-21T00:47:21;32.71;31.60;34.65;;
69619;Laerm;57653;51.434;5.984;2023-11-21T00:47:32;33.33;32.17;34.62;;
69619;Laerm;57653;51.434;5.984;2023-11-21T00:47:42;34.95;32.70;36.45;;
69619;Laerm;57653;51.434;5.984;2023-11-21T00:47:53;34.18;32.38;35.80;;
69619;Laerm;57653;51.434;5.984;2023-11-21T00:48:03;33.52;32.27;34.79;;
69619;Laerm;57653;51.434;5.984;2023-11-21T00:48:14;36.54;33.13;40.06;;
69619;Laerm;57653;51.434;5.984;2023-11-21T00:48:25;39.55;36.73;42.36;;
69619;Laerm;57653;51.434;5.984;2023-11-21T00:48:35;42.61;40.40;44.89;;
69619;Laerm;57653;51.434;5.984;2023-11-21T00:48:45;39.77;37.61;42.99;;
69619;Laerm;57653;51.434;5.984;2023-11-21T00:48:55;38.84;37.35;40.49;;
69619;Laerm;57653;51.434;5.984;2023-11-21T00:49:06;48.74;37.94;56.54;;
69619;Laerm;57653;51.434;5.984;2023-11-21T00:49:16;71.93;54.87;78.37;;
69619;Laerm;57653;51.434;5.984;2023-11-21T00:49:26;74.25;67.56;77.84;;
69619;Laerm;57653;51.434;5.984;2023-11-21T00:49:38;67.41;59.18;72.05;;
69619;Laerm;57653;51.434;5.984;2023-11-21T00:49:49;51.09;33.85;61.33;;
69619;Laerm;57653;51.434;5.984;2023-11-21T00:49:59;33.51;32.00;37.79;;
69619;Laerm;57653;51.434;5.984;2023-11-21T00:50:09;32.62;31.30;34.03;;
69619;Laerm;57653;51.434;5.984;2023-11-21T00:50:20;32.53;31.29;34.84;;
69619;Laerm;57653;51.434;5.984;2023-11-21T00:50:31;32.48;31.50;34.24;;
69619;Laerm;57653;51.434;5.984;2023-11-21T00:50:41;32.50;31.63;34.03;;
69619;Laerm;57653;51.434;5.984;2023-11-21T00:50:51;32.65;31.59;35.27;;
69619;Laerm;57653;51.434;5.984;2023-11-21T00:51:01;32.53;31.61;34.09;;
69619;Laerm;57653;51.434;5.984;2023-11-21T00:51:12;32.52;31.59;34.68;;
69619;Laerm;57653;51.434;5.984;2023-11-21T00:51:22;32.50;31.52;33.43;;
69619;Laerm;57653;51.434;5.984;2023-11-21T00:51:32;32.44;31.49;33.28;;
69619;Laerm;57653;51.434;5.984;2023-11-21T00:51:43;32.45;31.43;33.20;;
69619;Laerm;57653;51.434;5.984;2023-11-21T00:51:53;32.49;31.45;33.87;;
69619;Laerm;57653;51.434;5.984;2023-11-21T00:52:03;32.46;31.39;33.85;;
69619;Laerm;57653;51.434;5.984;2023-11-21T00:52:13;32.52;31.51;36.99;;
69619;Laerm;57653;51.434;5.984;2023-11-21T00:52:24;32.44;31.49;33.38;;
69619;Laerm;57653;51.434;5.984;2023-11-21T00:52:34;32.45;31.55;33.45;;
69619;Laerm;57653;51.434;5.984;2023-11-21T00:52:44;32.51;31.56;34.60;;
69619;Laerm;57653;51.434;5.984;2023-11-21T00:52:54;32.55;31.46;33.64;;
69619;Laerm;57653;51.434;5.984;2023-11-21T00:53:04;32.47;31.18;33.55;;
69619;Laerm;57653;51.434;5.984;2023-11-21T00:53:15;32.53;31.57;33.48;;
69619;Laerm;57653;51.434;5.984;2023-11-21T00:53:25;32.78;31.74;33.87;;
69619;Laerm;57653;51.434;5.984;2023-11-21T00:53:35;33.51;32.09;35.37;;
69619;Laerm;57653;51.434;5.984;2023-11-21T00:53:45;32.97;31.79;34.16;;
69619;Laerm;57653;51.434;5.984;2023-11-21T00:53:57;33.34;32.01;36.82;;
69619;Laerm;57653;51.434;5.984;2023-11-21T00:54:08;34.18;32.51;36.45;;
69619;Laerm;57653;51.434;5.984;2023-11-21T00:54:18;35.48;33.76;37.36;;
69619;Laerm;57653;51.434;5.984;2023-11-21T00:54:28;36.63;35.24;38.31;;
69619;Laerm;57653;51.434;5.984;2023-11-21T00:54:38;36.61;34.77;38.31;;
69619;Laerm;57653;51.434;5.984;2023-11-21T00:54:49;35.83;34.42;37.24;;
69619;Laerm;57653;51.434;5.984;2023-11-21T00:55:00;36.12;34.57;37.67;;
69619;Laerm;57653;51.434;5.984;2023-11-21T00:55:10;49.98;35.57;57.26;;
69619;Laerm;57653;51.434;5.984;2023-11-21T00:55:22;66.39;55.88;69.85;;
69619;Laerm;57653;51.434;5.984;2023-11-21T00:55:32;68.89;66.95;71.61;;
69619;Laerm;57653;51.434;5.984;2023-11-21T00:55:42;64.79;44.89;72.37;;
69619;Laerm;57653;51.434;5.984;2023-11-21T00:55:52;38.79;32.58;47.61;;
69619;Laerm;57653;51.434;5.984;2023-11-21T00:56:07;32.77;31.30;35.16;;
69619;Laerm;57653;51.434;5.984;2023-11-21T00:56:18;32.45;31.41;36.31;;
69619;Laerm;57653;51.434;5.984;2023-11-21T00:56:28;32.37;31.41;33.52;;
69619;Laerm;57653;51.434;5.984;2023-11-21T00:56:39;32.36;31.60;33.14;;
69619;Laerm;57653;51.434;5.984;2023-11-21T00:56:50;32.34;31.34;33.14;;
69619;Laerm;57653;51.434;5.984;2023-11-21T00:57:00;32.28;31.27;33.29;;
69619;Laerm;57653;51.434;5.984;2023-11-21T00:57:10;32.39;31.14;37.69;;
69619;Laerm;57653;51.434;5.984;2023-11-21T00:57:22;32.34;31.26;33.73;;
69619;Laerm;57653;51.434;5.984;2023-11-21T00:57:32;32.34;31.54;33.17;;
69619;Laerm;57653;51.434;5.984;2023-11-21T00:57:42;32.35;31.40;33.42;;
69619;Laerm;57653;51.434;5.984;2023-11-21T00:57:52;32.37;31.35;35.20;;
69619;Laerm;57653;51.434;5.984;2023-11-21T00:58:02;32.36;31.29;33.36;;
69619;Laerm;57653;51.434;5.984;2023-11-21T00:58:14;32.31;31.17;37.18;;
69619;Laerm;57653;51.434;5.984;2023-11-21T00:58:24;32.26;31.36;33.10;;
69619;Laerm;57653;51.434;5.984;2023-11-21T00:58:35;32.37;31.24;33.33;;
69619;Laerm;57653;51.434;5.984;2023-11-21T00:58:45;32.30;31.37;33.49;;
69619;Laerm;57653;51.434;5.984;2023-11-21T00:58:59;32.31;31.51;33.20;;
69619;Laerm;57653;51.434;5.984;2023-11-21T00:59:10;32.30;31.19;33.38;;